sensor_id;sensor_type;location;lat;lon;timestamp;pressure;altitude;pressure_sealevel;temperature;humidity
24558;BME280;12726;49.148;8.582;2024-01-25T00:01:13;101651.91;;;9.71;96.18
24558;BME280;12726;49.148;8.582;2024-01-25T00:03:58;101641.50;;;9.68;96.51
24558;BME280;12726;49.148;8.582;2024-01-25T00:06:43;101646.38;;;9.73;96.49
24558;BME280;12726;49.148;8.582;2024-01-25T00:09:28;101644.84;;;9.70;96.44
24558;BME280;12726;49.148;8.582;2024-01-25T00:15:13;101656.16;;;9.66;96.75
24558;BME280;12726;49.148;8.582;2024-01-25T00:17:59;101644.06;;;9.62;97.33
24558;BME280;12726;49.148;8.582;2024-01-25T00:20:45;101652.66;;;9.57;97.53
24558;BME280;12726;49.148;8.582;2024-01-25T00:23:30;101650.31;;;9.54;97.80
24558;BME280;12726;49.148;8.582;2024-01-25T00:26:16;101653.34;;;9.51;98.23
24558;BME280;12726;49.148;8.582;2024-01-25T00:29:01;101645.63;;;9.48;98.26
24558;BME280;12726;49.148;8.582;2024-01-25T00:31:47;101653.69;;;9.48;98.15
24558;BME280;12726;49.148;8.582;2024-01-25T00:34:34;101648.66;;;9.45;98.49
24558;BME280;12726;49.148;8.582;2024-01-25T00:37:19;101642.94;;;9.48;98.23
24558;BME280;12726;49.148;8.582;2024-01-25T00:40:06;101632.88;;;9.50;98.02
24558;BME280;12726;49.148;8.582;2024-01-25T00:42:52;101640.56;;;9.53;98.12
24558;BME280;12726;49.148;8.582;2024-01-25T00:45:38;101636.88;;;9.54;97.86
24558;BME280;12726;49.148;8.582;2024-01-25T00:48:24;101633.50;;;9.52;98.09
24558;BME280;12726;49.148;8.582;2024-01-25T00:51:14;101634.69;;;9.58;98.00
24558;BME280;12726;49.148;8.582;2024-01-25T00:54:00;101633.34;;;9.54;98.27
24558;BME280;12726;49.148;8.582;2024-01-25T00:56:46;101626.28;;;9.53;98.47
24558;BME280;12726;49.148;8.582;2024-01-25T00:59:35;101627.78;;;9.55;98.32
24558;BME280;12726;49.148;8.582;2024-01-25T01:02:22;101636.56;;;9.49;98.75
24558;BME280;12726;49.148;8.582;2024-01-25T01:05:09;101631.53;;;9.46;99.23
24558;BME280;12726;49.148;8.582;2024-01-25T01:07:56;101628.00;;;9.46;99.47
24558;BME280;12726;49.148;8.582;2024-01-25T01:10:41;101634.75;;;9.41;99.75
24558;BME280;12726;49.148;8.582;2024-01-25T01:13:27;101634.44;;;9.36;99.97
24558;BME280;12726;49.148;8.582;2024-01-25T01:16:12;101640.28;;;9.40;100.00
24558;BME280;12726;49.148;8.582;2024-01-25T01:18:58;101642.63;;;9.43;99.84
24558;BME280;12726;49.148;8.582;2024-01-25T01:21:49;101649.31;;;9.47;98.84
24558;BME280;12726;49.148;8.582;2024-01-25T01:24:36;101641.97;;;9.41;98.63
24558;BME280;12726;49.148;8.582;2024-01-25T01:27:21;101646.47;;;9.49;98.05
24558;BME280;12726;49.148;8.582;2024-01-25T01:30:07;101646.63;;;9.47;97.96
24558;BME280;12726;49.148;8.582;2024-01-25T01:32:53;101640.59;;;9.45;98.37
24558;BME280;12726;49.148;8.582;2024-01-25T01:35:38;101635.41;;;9.43;98.58
24558;BME280;12726;49.148;8.582;2024-01-25T01:38:23;101638.09;;;9.43;98.44
24558;BME280;12726;49.148;8.582;2024-01-25T01:41:11;101628.84;;;9.46;97.80
24558;BME280;12726;49.148;8.582;2024-01-25T01:43:56;101623.47;;;9.46;98.20
24558;BME280;12726;49.148;8.582;2024-01-25T01:46:42;101628.38;;;9.42;98.07
24558;BME280;12726;49.148;8.582;2024-01-25T01:49:27;101631.38;;;9.39;98.13
24558;BME280;12726;49.148;8.582;2024-01-25T01:52:12;101621.97;;;9.43;97.71
24558;BME280;12726;49.148;8.582;2024-01-25T01:54:58;101625.16;;;9.39;97.69
24558;BME280;12726;49.148;8.582;2024-01-25T01:57:45;101622.00;;;9.35;97.78
24558;BME280;12726;49.148;8.582;2024-01-25T02:00:32;101628.88;;;9.38;97.46
24558;BME280;12726;49.148;8.582;2024-01-25T02:03:18;101626.19;;;9.38;97.54
24558;BME280;12726;49.148;8.582;2024-01-25T02:06:04;101612.09;;;9.36;97.30
24558;BME280;12726;49.148;8.582;2024-01-25T02:08:49;101623.03;;;9.34;97.29
24558;BME280;12726;49.148;8.582;2024-01-25T02:11:36;101620.34;;;9.34;97.42
24558;BME280;12726;49.148;8.582;2024-01-25T02:14:23;101633.59;;;9.36;96.79
24558;BME280;12726;49.148;8.582;2024-01-25T02:17:09;101639.81;;;9.36;96.58
24558;BME280;12726;49.148;8.582;2024-01-25T02:19:54;101637.47;;;9.33;96.62
24558;BME280;12726;49.148;8.582;2024-01-25T02:22:41;101638.09;;;9.43;95.72
24558;BME280;12726;49.148;8.582;2024-01-25T02:25:26;101634.56;;;9.43;95.18
24558;BME280;12726;49.148;8.582;2024-01-25T02:28:12;101634.25;;;9.38;95.16
24558;BME280;12726;49.148;8.582;2024-01-25T02:30:59;101633.44;;;9.37;95.19
24558;BME280;12726;49.148;8.582;2024-01-25T02:33:45;101639.28;;;9.41;94.97
24558;BME280;12726;49.148;8.582;2024-01-25T02:36:30;101626.88;;;9.32;95.00
24558;BME280;12726;49.148;8.582;2024-01-25T02:39:17;101632.75;;;9.35;95.19
24558;BME280;12726;49.148;8.582;2024-01-25T02:42:03;101629.25;;;9.27;95.63
24558;BME280;12726;49.148;8.582;2024-01-25T02:44:48;101631.09;;;9.26;95.85
24558;BME280;12726;49.148;8.582;2024-01-25T02:47:33;101628.59;;;9.25;95.98
24558;BME280;12726;49.148;8.582;2024-01-25T02:50:19;101628.41;;;9.26;96.04
24558;BME280;12726;49.148;8.582;2024-01-25T02:53:04;101620.91;;;9.22;96.27
24558;BME280;12726;49.148;8.582;2024-01-25T02:55:51;101627.28;;;9.21;96.36
24558;BME280;12726;49.148;8.582;2024-01-25T02:58:37;101629.25;;;9.27;95.95
24558;BME280;12726;49.148;8.582;2024-01-25T03:01:22;101641.38;;;9.23;96.17
24558;BME280;12726;49.148;8.582;2024-01-25T03:04:07;101644.41;;;9.20;96.31
24558;BME280;12726;49.148;8.582;2024-01-25T03:06:53;101643.72;;;9.18;96.64
24558;BME280;12726;49.148;8.582;2024-01-25T03:09:38;101649.94;;;9.18;96.23
24558;BME280;12726;49.148;8.582;2024-01-25T03:12:25;101646.41;;;9.18;96.13
24558;BME280;12726;49.148;8.582;2024-01-25T03:15:10;101649.47;;;9.15;96.46
24558;BME280;12726;49.148;8.582;2024-01-25T03:17:56;101641.38;;;9.23;95.65
24558;BME280;12726;49.148;8.582;2024-01-25T03:20:41;101642.22;;;9.23;95.52
24558;BME280;12726;49.148;8.582;2024-01-25T03:23:27;101640.19;;;9.17;96.10
24558;BME280;12726;49.148;8.582;2024-01-25T03:26:15;101651.28;;;9.22;95.30
24558;BME280;12726;49.148;8.582;2024-01-25T03:29:02;101652.63;;;9.18;95.63
24558;BME280;12726;49.148;8.582;2024-01-25T03:31:47;101645.41;;;9.19;95.63
24558;BME280;12726;49.148;8.582;2024-01-25T03:34:32;101637.72;;;9.16;96.15
24558;BME280;12726;49.148;8.582;2024-01-25T03:37:18;101638.06;;;9.13;96.31
24558;BME280;12726;49.148;8.582;2024-01-25T03:40:04;101645.94;;;9.14;96.41
24558;BME280;12726;49.148;8.582;2024-01-25T03:42:50;101655.69;;;9.15;96.13
24558;BME280;12726;49.148;8.582;2024-01-25T03:45:36;101650.31;;;9.15;96.20
24558;BME280;12726;49.148;8.582;2024-01-25T03:48:21;101658.88;;;9.11;96.45
24558;BME280;12726;49.148;8.582;2024-01-25T03:51:07;101671.97;;;9.06;97.07
24558;BME280;12726;49.148;8.582;2024-01-25T03:53:52;101672.31;;;9.02;97.13
24558;BME280;12726;49.148;8.582;2024-01-25T03:56:39;101671.66;;;9.00;97.37
24558;BME280;12726;49.148;8.582;2024-01-25T03:59:24;101678.38;;;8.96;97.74
24558;BME280;12726;49.148;8.582;2024-01-25T04:02:11;101691.16;;;8.94;98.04
24558;BME280;12726;49.148;8.582;2024-01-25T04:04:56;101698.00;;;9.05;97.10
24558;BME280;12726;49.148;8.582;2024-01-25T04:07:42;101703.22;;;8.98;97.32
24558;BME280;12726;49.148;8.582;2024-01-25T04:10:27;101696.69;;;8.93;97.66
24558;BME280;12726;49.148;8.582;2024-01-25T04:13:13;101704.25;;;8.89;98.22
24558;BME280;12726;49.148;8.582;2024-01-25T04:15:58;101699.03;;;8.96;97.42
24558;BME280;12726;49.148;8.582;2024-01-25T04:18:45;101693.16;;;8.92;97.38
24558;BME280;12726;49.148;8.582;2024-01-25T04:21:30;101696.03;;;8.91;97.21
24558;BME280;12726;49.148;8.582;2024-01-25T04:24:15;101693.16;;;9.00;95.63
24558;BME280;12726;49.148;8.582;2024-01-25T04:27:01;101690.47;;;9.00;95.79
24558;BME280;12726;49.148;8.582;2024-01-25T04:29:46;101699.53;;;8.91;96.61
24558;BME280;12726;49.148;8.582;2024-01-25T04:32:31;101692.84;;;8.87;96.52
24558;BME280;12726;49.148;8.582;2024-01-25T04:35:18;101701.38;;;8.83;96.59
24558;BME280;12726;49.148;8.582;2024-01-25T04:38:04;101712.13;;;8.75;96.70
24558;BME280;12726;49.148;8.582;2024-01-25T04:40:49;101715.19;;;8.72;97.08
24558;BME280;12726;49.148;8.582;2024-01-25T04:43:34;101712.13;;;8.75;96.27
24558;BME280;12726;49.148;8.582;2024-01-25T04:46:21;101718.03;;;8.70;96.35
24558;BME280;12726;49.148;8.582;2024-01-25T04:49:06;101717.00;;;8.63;96.43
24558;BME280;12726;49.148;8.582;2024-01-25T04:51:53;101723.06;;;8.57;96.34
24558;BME280;12726;49.148;8.582;2024-01-25T04:54:38;101722.88;;;8.50;96.66
24558;BME280;12726;49.148;8.582;2024-01-25T04:57:23;101725.56;;;8.42;96.72
24558;BME280;12726;49.148;8.582;2024-01-25T05:00:10;101726.41;;;8.43;96.56
24558;BME280;12726;49.148;8.582;2024-01-25T05:02:55;101728.38;;;8.33;96.92
24558;BME280;12726;49.148;8.582;2024-01-25T05:05:41;101721.31;;;8.23;97.54
24558;BME280;12726;49.148;8.582;2024-01-25T05:08:27;101734.75;;;8.23;97.63
24558;BME280;12726;49.148;8.582;2024-01-25T05:11:13;101735.03;;;8.12;97.70
24558;BME280;12726;49.148;8.582;2024-01-25T05:13:58;101727.31;;;8.01;98.09
24558;BME280;12726;49.148;8.582;2024-01-25T05:16:44;101739.84;;;7.93;98.47
24558;BME280;12726;49.148;8.582;2024-01-25T05:19:29;101742.00;;;7.89;98.71
24558;BME280;12726;49.148;8.582;2024-01-25T05:22:15;101738.81;;;7.85;98.97
24558;BME280;12726;49.148;8.582;2024-01-25T05:25:02;101734.09;;;7.79;99.07
24558;BME280;12726;49.148;8.582;2024-01-25T05:27:48;101744.44;;;7.74;99.35
24558;BME280;12726;49.148;8.582;2024-01-25T05:30:34;101746.09;;;7.67;99.65
24558;BME280;12726;49.148;8.582;2024-01-25T05:33:19;101750.09;;;7.63;99.88
24558;BME280;12726;49.148;8.582;2024-01-25T05:36:05;101751.44;;;7.59;100.00
24558;BME280;12726;49.148;8.582;2024-01-25T05:38:50;101760.63;;;7.57;100.00
24558;BME280;12726;49.148;8.582;2024-01-25T05:41:37;101762.13;;;7.51;100.00
24558;BME280;12726;49.148;8.582;2024-01-25T05:44:23;101762.22;;;7.41;100.00
24558;BME280;12726;49.148;8.582;2024-01-25T05:47:08;101759.88;;;7.38;100.00
24558;BME280;12726;49.148;8.582;2024-01-25T05:49:53;101759.34;;;7.35;100.00
24558;BME280;12726;49.148;8.582;2024-01-25T05:52:39;101747.63;;;7.36;100.00
24558;BME280;12726;49.148;8.582;2024-01-25T05:55:24;101756.66;;;7.35;100.00
24558;BME280;12726;49.148;8.582;2024-01-25T05:58:10;101762.84;;;7.35;100.00
24558;BME280;12726;49.148;8.582;2024-01-25T06:00:56;101755.47;;;7.29;100.00
24558;BME280;12726;49.148;8.582;2024-01-25T06:03:41;101771.31;;;7.23;100.00
24558;BME280;12726;49.148;8.582;2024-01-25T06:06:26;101773.31;;;7.21;100.00
24558;BME280;12726;49.148;8.582;2024-01-25T06:09:12;101765.06;;;7.14;100.00
24558;BME280;12726;49.148;8.582;2024-01-25T06:11:57;101761.34;;;7.07;100.00
24558;BME280;12726;49.148;8.582;2024-01-25T06:14:44;101751.94;;;7.03;100.00
24558;BME280;12726;49.148;8.582;2024-01-25T06:17:30;101754.22;;;6.98;100.00
24558;BME280;12726;49.148;8.582;2024-01-25T06:20:16;101747.19;;;6.97;100.00
24558;BME280;12726;49.148;8.582;2024-01-25T06:23:01;101753.72;;;6.94;100.00
24558;BME280;12726;49.148;8.582;2024-01-25T06:25:46;101752.88;;;6.94;100.00
24558;BME280;12726;49.148;8.582;2024-01-25T06:28:31;101748.66;;;6.91;100.00
24558;BME280;12726;49.148;8.582;2024-01-25T06:31:18;101743.78;;;6.87;100.00
24558;BME280;12726;49.148;8.582;2024-01-25T06:34:03;101738.59;;;6.85;100.00
24558;BME280;12726;49.148;8.582;2024-01-25T06:36:49;101740.78;;;6.90;100.00
24558;BME280;12726;49.148;8.582;2024-01-25T06:39:34;101734.91;;;6.86;100.00
24558;BME280;12726;49.148;8.582;2024-01-25T06:42:20;101736.59;;;6.87;100.00
24558;BME280;12726;49.148;8.582;2024-01-25T06:45:06;101739.56;;;6.84;100.00
24558;BME280;12726;49.148;8.582;2024-01-25T06:47:52;101742.25;;;6.84;100.00
24558;BME280;12726;49.148;8.582;2024-01-25T06:50:38;101755.97;;;6.81;100.00
24558;BME280;12726;49.148;8.582;2024-01-25T06:53:23;101773.16;;;6.79;100.00
24558;BME280;12726;49.148;8.582;2024-01-25T06:56:09;101771.63;;;6.76;100.00
24558;BME280;12726;49.148;8.582;2024-01-25T06:58:54;101774.78;;;6.72;100.00
24558;BME280;12726;49.148;8.582;2024-01-25T07:01:39;101785.09;;;6.66;100.00
24558;BME280;12726;49.148;8.582;2024-01-25T07:04:26;101793.91;;;6.59;100.00
24558;BME280;12726;49.148;8.582;2024-01-25T07:07:11;101796.34;;;6.52;100.00
24558;BME280;12726;49.148;8.582;2024-01-25T07:09:57;101798.94;;;6.44;100.00
24558;BME280;12726;49.148;8.582;2024-01-25T07:12:42;101809.91;;;6.41;100.00
24558;BME280;12726;49.148;8.582;2024-01-25T07:15:27;101807.34;;;6.32;100.00
24558;BME280;12726;49.148;8.582;2024-01-25T07:18:13;101803.25;;;6.27;100.00
24558;BME280;12726;49.148;8.582;2024-01-25T07:20:59;101796.22;;;6.26;100.00
24558;BME280;12726;49.148;8.582;2024-01-25T07:23:44;101795.38;;;6.26;100.00
24558;BME280;12726;49.148;8.582;2024-01-25T07:26:30;101806.63;;;6.29;100.00
24558;BME280;12726;49.148;8.582;2024-01-25T07:29:15;101802.41;;;6.27;100.00
24558;BME280;12726;49.148;8.582;2024-01-25T07:32:01;101808.22;;;6.22;100.00
24558;BME280;12726;49.148;8.582;2024-01-25T07:34:46;101806.53;;;6.21;100.00
24558;BME280;12726;49.148;8.582;2024-01-25T07:37:33;101820.75;;;6.22;100.00
24558;BME280;12726;49.148;8.582;2024-01-25T07:40:18;101819.31;;;6.27;100.00
24558;BME280;12726;49.148;8.582;2024-01-25T07:43:04;101822.63;;;6.39;100.00
24558;BME280;12726;49.148;8.582;2024-01-25T07:45:49;101822.53;;;6.49;100.00
24558;BME280;12726;49.148;8.582;2024-01-25T07:48:34;101826.00;;;6.59;100.00
24558;BME280;12726;49.148;8.582;2024-01-25T07:51:20;101829.06;;;6.64;100.00
24558;BME280;12726;49.148;8.582;2024-01-25T07:54:07;101839.00;;;6.72;100.00
24558;BME280;12726;49.148;8.582;2024-01-25T07:56:55;101835.56;;;6.79;100.00
24558;BME280;12726;49.148;8.582;2024-01-25T07:59:40;101830.44;;;6.86;100.00
24558;BME280;12726;49.148;8.582;2024-01-25T08:02:25;101828.97;;;6.91;100.00
24558;BME280;12726;49.148;8.582;2024-01-25T08:05:11;101817.13;;;6.94;100.00
24558;BME280;12726;49.148;8.582;2024-01-25T08:07:56;101804.59;;;6.94;100.00
24558;BME280;12726;49.148;8.582;2024-01-25T08:10:43;101820.03;;;7.00;100.00
24558;BME280;12726;49.148;8.582;2024-01-25T08:13:30;101814.81;;;7.17;100.00
24558;BME280;12726;49.148;8.582;2024-01-25T08:16:15;101808.13;;;7.46;100.00
24558;BME280;12726;49.148;8.582;2024-01-25T08:19:03;101810.75;;;7.98;100.00
24558;BME280;12726;49.148;8.582;2024-01-25T08:21:48;101805.47;;;8.73;99.67
24558;BME280;12726;49.148;8.582;2024-01-25T08:24:33;101813.31;;;9.47;95.37
24558;BME280;12726;49.148;8.582;2024-01-25T08:27:20;101814.50;;;10.00;90.08
24558;BME280;12726;49.148;8.582;2024-01-25T08:30:07;101819.25;;;10.37;87.26
24558;BME280;12726;49.148;8.582;2024-01-25T08:32:52;101818.16;;;10.77;84.81
24558;BME280;12726;49.148;8.582;2024-01-25T08:35:38;101817.53;;;10.89;83.42
24558;BME280;12726;49.148;8.582;2024-01-25T08:38:24;101805.25;;;11.10;81.78
24558;BME280;12726;49.148;8.582;2024-01-25T08:41:10;101814.94;;;11.19;81.01
24558;BME280;12726;49.148;8.582;2024-01-25T08:43:57;101808.75;;;11.48;81.04
24558;BME280;12726;49.148;8.582;2024-01-25T08:46:42;101809.47;;;11.79;79.73
24558;BME280;12726;49.148;8.582;2024-01-25T08:49:27;101812.66;;;12.33;77.80
24558;BME280;12726;49.148;8.582;2024-01-25T08:52:13;101820.63;;;12.56;75.51
24558;BME280;12726;49.148;8.582;2024-01-25T08:54:59;101820.25;;;12.80;74.01
24558;BME280;12726;49.148;8.582;2024-01-25T08:57:44;101821.06;;;12.60;75.22
24558;BME280;12726;49.148;8.582;2024-01-25T09:00:31;101825.97;;;12.71;74.18
24558;BME280;12726;49.148;8.582;2024-01-25T09:03:17;101820.97;;;12.89;74.80
24558;BME280;12726;49.148;8.582;2024-01-25T09:06:02;101820.06;;;12.82;76.43
24558;BME280;12726;49.148;8.582;2024-01-25T09:08:49;101831.25;;;12.79;76.73
24558;BME280;12726;49.148;8.582;2024-01-25T09:11:35;101822.28;;;13.14;76.33
24558;BME280;12726;49.148;8.582;2024-01-25T09:14:20;101828.28;;;13.65;73.61
24558;BME280;12726;49.148;8.582;2024-01-25T09:17:07;101838.28;;;13.71;73.46
24558;BME280;12726;49.148;8.582;2024-01-25T09:19:52;101842.28;;;14.10;71.97
24558;BME280;12726;49.148;8.582;2024-01-25T09:22:38;101846.00;;;14.43;71.73
24558;BME280;12726;49.148;8.582;2024-01-25T09:25:23;101842.81;;;14.94;68.48
24558;BME280;12726;49.148;8.582;2024-01-25T09:28:08;101846.16;;;15.16;68.91
24558;BME280;12726;49.148;8.582;2024-01-25T09:30:55;101841.13;;;15.00;66.98
24558;BME280;12726;49.148;8.582;2024-01-25T09:33:42;101842.97;;;14.19;70.93
24558;BME280;12726;49.148;8.582;2024-01-25T09:36:28;101841.56;;;13.95;72.85
24558;BME280;12726;49.148;8.582;2024-01-25T09:39:13;101846.69;;;14.18;73.03
24558;BME280;12726;49.148;8.582;2024-01-25T09:41:58;101846.78;;;14.37;70.82
24558;BME280;12726;49.148;8.582;2024-01-25T09:44:44;101850.00;;;14.54;70.22
24558;BME280;12726;49.148;8.582;2024-01-25T09:47:29;101856.16;;;15.02;68.72
24558;BME280;12726;49.148;8.582;2024-01-25T09:50:16;101858.75;;;15.63;65.19
24558;BME280;12726;49.148;8.582;2024-01-25T09:53:02;101855.59;;;16.43;62.68
24558;BME280;12726;49.148;8.582;2024-01-25T09:55:57;101856.84;;;16.48;61.47
24558;BME280;12726;49.148;8.582;2024-01-25T09:58:44;101861.66;;;15.68;63.22
24558;BME280;12726;49.148;8.582;2024-01-25T10:01:30;101856.13;;;14.82;66.90
24558;BME280;12726;49.148;8.582;2024-01-25T10:04:16;101868.84;;;14.75;66.74
24558;BME280;12726;49.148;8.582;2024-01-25T10:07:05;101856.72;;;14.65;68.02
24558;BME280;12726;49.148;8.582;2024-01-25T10:09:50;101851.84;;;13.71;70.67
24558;BME280;12726;49.148;8.582;2024-01-25T10:12:37;101848.94;;;12.81;73.66
24558;BME280;12726;49.148;8.582;2024-01-25T10:15:23;101853.25;;;12.76;76.50
24558;BME280;12726;49.148;8.582;2024-01-25T10:18:09;101859.94;;;13.71;74.29
24558;BME280;12726;49.148;8.582;2024-01-25T10:20:57;101854.25;;;13.60;72.16
24558;BME280;12726;49.148;8.582;2024-01-25T10:23:46;101867.69;;;13.04;72.23
24558;BME280;12726;49.148;8.582;2024-01-25T10:26:31;101856.38;;;12.58;73.84
24558;BME280;12726;49.148;8.582;2024-01-25T10:29:16;101859.25;;;12.21;76.10
24558;BME280;12726;49.148;8.582;2024-01-25T10:32:03;101859.13;;;11.70;77.95
24558;BME280;12726;49.148;8.582;2024-01-25T10:34:49;101861.88;;;11.47;79.67
24558;BME280;12726;49.148;8.582;2024-01-25T10:37:36;101860.31;;;11.15;81.09
24558;BME280;12726;49.148;8.582;2024-01-25T10:40:27;101853.34;;;10.98;82.46
24558;BME280;12726;49.148;8.582;2024-01-25T10:43:13;101855.59;;;11.09;82.93
24558;BME280;12726;49.148;8.582;2024-01-25T10:45:59;101844.84;;;12.85;79.51
24558;BME280;12726;49.148;8.582;2024-01-25T10:48:44;101833.44;;;15.29;69.19
24558;BME280;12726;49.148;8.582;2024-01-25T10:51:30;101834.81;;;17.93;59.88
24558;BME280;12726;49.148;8.582;2024-01-25T10:54:16;101841.41;;;18.58;54.81
24558;BME280;12726;49.148;8.582;2024-01-25T10:57:04;101843.97;;;19.25;51.76
24558;BME280;12726;49.148;8.582;2024-01-25T10:59:49;101835.38;;;19.63;47.63
24558;BME280;12726;49.148;8.582;2024-01-25T11:02:35;101837.00;;;18.57;50.88
24558;BME280;12726;49.148;8.582;2024-01-25T11:05:23;101830.41;;;18.47;51.95
24558;BME280;12726;49.148;8.582;2024-01-25T11:08:17;101834.81;;;18.29;51.34
24558;BME280;12726;49.148;8.582;2024-01-25T11:11:03;101822.28;;;16.93;55.63
24558;BME280;12726;49.148;8.582;2024-01-25T11:13:51;101815.69;;;15.73;59.64
24558;BME280;12726;49.148;8.582;2024-01-25T11:16:37;101819.03;;;15.29;60.89
24558;BME280;12726;49.148;8.582;2024-01-25T11:19:27;101819.56;;;14.59;63.70
24558;BME280;12726;49.148;8.582;2024-01-25T11:22:12;101806.28;;;14.23;65.80
24558;BME280;12726;49.148;8.582;2024-01-25T11:24:58;101820.69;;;14.23;67.09
24558;BME280;12726;49.148;8.582;2024-01-25T11:27:43;101813.19;;;14.25;64.44
24558;BME280;12726;49.148;8.582;2024-01-25T11:30:32;101801.13;;;13.52;67.38
24558;BME280;12726;49.148;8.582;2024-01-25T11:33:17;101802.84;;;13.32;69.87
24558;BME280;12726;49.148;8.582;2024-01-25T11:36:05;101806.09;;;13.21;71.34
24558;BME280;12726;49.148;8.582;2024-01-25T11:38:50;101798.81;;;13.00;71.21
24558;BME280;12726;49.148;8.582;2024-01-25T11:41:36;101784.84;;;12.75;72.53
24558;BME280;12726;49.148;8.582;2024-01-25T11:44:21;101782.81;;;12.56;73.53
24558;BME280;12726;49.148;8.582;2024-01-25T11:47:09;101779.41;;;12.69;74.66
24558;BME280;12726;49.148;8.582;2024-01-25T11:49:55;101776.31;;;13.14;72.55
24558;BME280;12726;49.148;8.582;2024-01-25T11:52:40;101778.56;;;15.08;66.02
24558;BME280;12726;49.148;8.582;2024-01-25T11:55:25;101776.84;;;16.68;59.26
24558;BME280;12726;49.148;8.582;2024-01-25T11:58:11;101776.53;;;18.12;53.17
24558;BME280;12726;49.148;8.582;2024-01-25T12:00:56;101763.63;;;19.32;47.81
24558;BME280;12726;49.148;8.582;2024-01-25T12:03:45;101774.28;;;19.80;48.69
24558;BME280;12726;49.148;8.582;2024-01-25T12:06:30;101757.53;;;19.88;47.06
24558;BME280;12726;49.148;8.582;2024-01-25T12:09:16;101747.78;;;18.99;49.31
24558;BME280;12726;49.148;8.582;2024-01-25T12:12:01;101747.22;;;19.21;49.81
24558;BME280;12726;49.148;8.582;2024-01-25T12:14:47;101757.69;;;18.11;49.93
24558;BME280;12726;49.148;8.582;2024-01-25T12:17:33;101741.72;;;16.92;53.39
24558;BME280;12726;49.148;8.582;2024-01-25T12:20:21;101744.44;;;17.59;51.68
24558;BME280;12726;49.148;8.582;2024-01-25T12:23:08;101745.38;;;17.29;52.39
24558;BME280;12726;49.148;8.582;2024-01-25T12:25:53;101736.38;;;17.89;52.05
24558;BME280;12726;49.148;8.582;2024-01-25T12:28:38;101716.81;;;18.11;51.02
24558;BME280;12726;49.148;8.582;2024-01-25T12:31:24;101717.28;;;18.49;48.38
24558;BME280;12726;49.148;8.582;2024-01-25T12:34:13;101715.41;;;18.20;48.82
24558;BME280;12726;49.148;8.582;2024-01-25T12:37:01;101715.47;;;18.31;49.07
24558;BME280;12726;49.148;8.582;2024-01-25T12:39:47;101705.72;;;17.94;49.69
24558;BME280;12726;49.148;8.582;2024-01-25T12:42:32;101706.03;;;18.46;48.95
24558;BME280;12726;49.148;8.582;2024-01-25T12:45:17;101694.63;;;18.07;49.82
24558;BME280;12726;49.148;8.582;2024-01-25T12:48:04;101691.03;;;17.95;47.89
24558;BME280;12726;49.148;8.582;2024-01-25T12:50:50;101690.66;;;18.21;46.70
24558;BME280;12726;49.148;8.582;2024-01-25T12:53:37;101691.94;;;17.52;48.21
24558;BME280;12726;49.148;8.582;2024-01-25T12:56:22;101689.53;;;15.76;52.57
24558;BME280;12726;49.148;8.582;2024-01-25T12:59:08;101672.38;;;14.45;57.23
24558;BME280;12726;49.148;8.582;2024-01-25T13:01:53;101685.88;;;13.64;60.70
24558;BME280;12726;49.148;8.582;2024-01-25T13:04:39;101678.41;;;13.25;63.88
24558;BME280;12726;49.148;8.582;2024-01-25T13:07:25;101680.72;;;13.28;64.24
24558;BME280;12726;49.148;8.582;2024-01-25T13:10:11;101679.44;;;13.24;65.29
24558;BME280;12726;49.148;8.582;2024-01-25T13:12:57;101663.81;;;13.20;65.54
24558;BME280;12726;49.148;8.582;2024-01-25T13:15:42;101664.69;;;12.99;66.63
24558;BME280;12726;49.148;8.582;2024-01-25T13:18:27;101662.38;;;12.68;68.26
24558;BME280;12726;49.148;8.582;2024-01-25T13:21:13;101662.59;;;12.73;69.48
24558;BME280;12726;49.148;8.582;2024-01-25T13:23:59;101658.09;;;12.80;69.80
24558;BME280;12726;49.148;8.582;2024-01-25T13:26:46;101658.69;;;12.76;69.52
24558;BME280;12726;49.148;8.582;2024-01-25T13:29:31;101655.09;;;12.69;70.53
24558;BME280;12726;49.148;8.582;2024-01-25T13:32:16;101653.53;;;12.32;70.90
24558;BME280;12726;49.148;8.582;2024-01-25T13:35:02;101653.22;;;11.99;72.60
24558;BME280;12726;49.148;8.582;2024-01-25T13:37:48;101647.44;;;11.87;73.38
24558;BME280;12726;49.148;8.582;2024-01-25T13:40:33;101647.59;;;11.79;73.87
24558;BME280;12726;49.148;8.582;2024-01-25T13:43:19;101641.16;;;11.65;74.97
24558;BME280;12726;49.148;8.582;2024-01-25T13:46:05;101642.06;;;11.72;75.05
24558;BME280;12726;49.148;8.582;2024-01-25T13:48:50;101648.00;;;11.97;75.14
24558;BME280;12726;49.148;8.582;2024-01-25T13:51:36;101642.97;;;12.15;73.79
24558;BME280;12726;49.148;8.582;2024-01-25T13:54:21;101642.06;;;12.30;71.84
24558;BME280;12726;49.148;8.582;2024-01-25T13:57:07;101643.13;;;12.50;72.78
24558;BME280;12726;49.148;8.582;2024-01-25T13:59:53;101645.03;;;12.56;71.83
24558;BME280;12726;49.148;8.582;2024-01-25T14:02:39;101646.63;;;12.50;71.26
24558;BME280;12726;49.148;8.582;2024-01-25T14:05:26;101634.13;;;12.22;72.26
24558;BME280;12726;49.148;8.582;2024-01-25T14:08:12;101628.06;;;11.98;73.83
24558;BME280;12726;49.148;8.582;2024-01-25T14:10:57;101621.97;;;11.90;74.48
24558;BME280;12726;49.148;8.582;2024-01-25T14:13:42;101628.41;;;11.59;75.12
24558;BME280;12726;49.148;8.582;2024-01-25T14:16:29;101635.34;;;11.47;75.91
24558;BME280;12726;49.148;8.582;2024-01-25T14:19:15;101636.66;;;11.36;75.71
24558;BME280;12726;49.148;8.582;2024-01-25T14:22:01;101636.69;;;11.22;76.94
24558;BME280;12726;49.148;8.582;2024-01-25T14:24:47;101628.88;;;11.12;78.41
24558;BME280;12726;49.148;8.582;2024-01-25T14:27:32;101628.28;;;11.02;78.32
24558;BME280;12726;49.148;8.582;2024-01-25T14:30:20;101629.50;;;10.99;79.13
24558;BME280;12726;49.148;8.582;2024-01-25T14:33:06;101620.94;;;10.96;80.49